sensor_id;sensor_type;location;lat;lon;timestamp;pressure;altitude;pressure_sealevel;temperature;humidity
23677;BME280;31493;49.058;12.190;2023-03-04T00:02:21;96363.94;;;-0.80;100.00
23677;BME280;31493;49.058;12.190;2023-03-04T00:04:48;96358.97;;;-0.86;100.00
23677;BME280;31493;49.058;12.190;2023-03-04T00:07:15;96362.19;;;-0.76;100.00
23677;BME280;31493;49.058;12.190;2023-03-04T00:09:44;96352.00;;;-0.75;100.00
23677;BME280;31493;49.058;12.190;2023-03-04T00:12:12;96355.38;;;-0.74;100.00
23677;BME280;31493;49.058;12.190;2023-03-04T00:14:40;96355.44;;;-0.77;100.00
23677;BME280;31493;49.058;12.190;2023-03-04T00:17:07;96357.06;;;-0.73;99.50
23677;BME280;31493;49.058;12.190;2023-03-04T00:19:34;96367.41;;;-0.83;99.97
23677;BME280;31493;49.058;12.190;2023-03-04T00:22:02;96361.47;;;-0.83;100.00
23677;BME280;31493;49.058;12.190;2023-03-04T00:24:29;96359.06;;;-0.89;100.00
23677;BME280;31493;49.058;12.190;2023-03-04T00:26:57;96363.38;;;-0.94;100.00
23677;BME280;31493;49.058;12.190;2023-03-04T00:29:25;96352.22;;;-0.86;100.00
23677;BME280;31493;49.058;12.190;2023-03-04T00:31:52;96352.34;;;-0.92;100.00
23677;BME280;31493;49.058;12.190;2023-03-04T00:34:20;96353.94;;;-0.88;99.77
23677;BME280;31493;49.058;12.190;2023-03-04T00:36:47;96348.81;;;-0.86;99.29
23677;BME280;31493;49.058;12.190;2023-03-04T00:39:14;96356.47;;;-0.88;99.41
23677;BME280;31493;49.058;12.190;2023-03-04T00:41:41;96347.94;;;-0.84;98.60
23677;BME280;31493;49.058;12.190;2023-03-04T00:44:08;96349.66;;;-0.84;97.97
23677;BME280;31493;49.058;12.190;2023-03-04T00:46:39;96345.44;;;-0.87;96.98
23677;BME280;31493;49.058;12.190;2023-03-04T00:49:06;96343.72;;;-0.85;96.97
23677;BME280;31493;49.058;12.190;2023-03-04T00:51:33;96344.63;;;-0.89;97.44
23677;BME280;31493;49.058;12.190;2023-03-04T00:54:00;96338.75;;;-0.92;98.33
23677;BME280;31493;49.058;12.190;2023-03-04T00:56:27;96350.63;;;-0.91;98.36
23677;BME280;31493;49.058;12.190;2023-03-04T00:58:54;96343.91;;;-0.95;98.43
23677;BME280;31493;49.058;12.190;2023-03-04T01:01:22;96343.22;;;-1.03;98.72
23677;BME280;31493;49.058;12.190;2023-03-04T01:03:50;96350.78;;;-1.00;99.03
23677;BME280;31493;49.058;12.190;2023-03-04T01:06:17;96341.63;;;-1.11;99.11
23677;BME280;31493;49.058;12.190;2023-03-04T01:08:44;96330.63;;;-1.10;98.50
23677;BME280;31493;49.058;12.190;2023-03-04T01:11:11;96336.56;;;-1.09;99.18
23677;BME280;31493;49.058;12.190;2023-03-04T01:13:38;96325.50;;;-1.08;98.90
23677;BME280;31493;49.058;12.190;2023-03-04T01:16:06;96328.03;;;-1.06;99.23
23677;BME280;31493;49.058;12.190;2023-03-04T01:18:35;96317.75;;;-1.00;97.96
23677;BME280;31493;49.058;12.190;2023-03-04T01:21:04;96322.06;;;-1.04;98.24
23677;BME280;31493;49.058;12.190;2023-03-04T01:23:31;96321.03;;;-0.95;96.94
23677;BME280;31493;49.058;12.190;2023-03-04T01:25:58;96322.81;;;-1.00;97.51
23677;BME280;31493;49.058;12.190;2023-03-04T01:28:25;96316.09;;;-1.03;96.75
23677;BME280;31493;49.058;12.190;2023-03-04T01:30:52;96308.59;;;-1.11;97.61
23677;BME280;31493;49.058;12.190;2023-03-04T01:33:19;96313.78;;;-1.15;97.86
23677;BME280;31493;49.058;12.190;2023-03-04T01:35:46;96320.59;;;-1.16;97.93
23677;BME280;31493;49.058;12.190;2023-03-04T01:38:15;96312.28;;;-1.25;97.95
23677;BME280;31493;49.058;12.190;2023-03-04T01:40:42;96309.69;;;-1.24;98.54
23677;BME280;31493;49.058;12.190;2023-03-04T01:43:15;96323.28;;;-1.25;97.89
23677;BME280;31493;49.058;12.190;2023-03-04T01:45:47;96304.66;;;-1.25;98.27
23677;BME280;31493;49.058;12.190;2023-03-04T01:48:17;96314.69;;;-1.19;97.99
23677;BME280;31493;49.058;12.190;2023-03-04T01:50:44;96316.56;;;-1.29;97.51
23677;BME280;31493;49.058;12.190;2023-03-04T01:53:18;96303.03;;;-1.29;98.98
23677;BME280;31493;49.058;12.190;2023-03-04T01:55:47;96313.16;;;-1.26;98.33
23677;BME280;31493;49.058;12.190;2023-03-04T01:58:14;96315.81;;;-1.36;98.48
23677;BME280;31493;49.058;12.190;2023-03-04T02:00:42;96307.25;;;-1.28;98.29
23677;BME280;31493;49.058;12.190;2023-03-04T02:03:10;96310.53;;;-1.23;97.57
23677;BME280;31493;49.058;12.190;2023-03-04T02:05:41;96299.69;;;-1.31;97.78
23677;BME280;31493;49.058;12.190;2023-03-04T02:08:09;96292.91;;;-1.31;96.89
23677;BME280;31493;49.058;12.190;2023-03-04T02:10:38;96292.94;;;-1.32;97.35
23677;BME280;31493;49.058;12.190;2023-03-04T02:13:05;96294.88;;;-1.47;97.93
23677;BME280;31493;49.058;12.190;2023-03-04T02:15:32;96307.66;;;-1.51;98.89
23677;BME280;31493;49.058;12.190;2023-03-04T02:18:00;96296.69;;;-1.55;99.37
23677;BME280;31493;49.058;12.190;2023-03-04T02:20:35;96309.63;;;-1.69;99.58
23677;BME280;31493;49.058;12.190;2023-03-04T02:23:06;96301.03;;;-1.62;100.00
23677;BME280;31493;49.058;12.190;2023-03-04T02:25:41;96297.06;;;-1.76;100.00
23677;BME280;31493;49.058;12.190;2023-03-04T02:28:10;96309.72;;;-1.75;100.00
23677;BME280;31493;49.058;12.190;2023-03-04T02:30:37;96294.72;;;-1.88;100.00
23677;BME280;31493;49.058;12.190;2023-03-04T02:33:04;96310.75;;;-1.86;100.00
23677;BME280;31493;49.058;12.190;2023-03-04T02:35:31;96302.13;;;-1.76;100.00
23677;BME280;31493;49.058;12.190;2023-03-04T02:37:58;96298.97;;;-1.89;100.00
23677;BME280;31493;49.058;12.190;2023-03-04T02:40:28;96289.00;;;-2.01;100.00
23677;BME280;31493;49.058;12.190;2023-03-04T02:42:57;96294.09;;;-2.04;100.00
23677;BME280;31493;49.058;12.190;2023-03-04T02:45:36;96294.06;;;-2.01;100.00
23677;BME280;31493;49.058;12.190;2023-03-04T02:48:05;96291.44;;;-1.97;100.00
23677;BME280;31493;49.058;12.190;2023-03-04T02:50:34;96289.78;;;-1.96;100.00
23677;BME280;31493;49.058;12.190;2023-03-04T02:53:03;96288.03;;;-1.94;100.00
23677;BME280;31493;49.058;12.190;2023-03-04T02:55:30;96285.44;;;-1.90;100.00
23677;BME280;31493;49.058;12.190;2023-03-04T02:57:57;96282.91;;;-1.90;100.00
23677;BME280;31493;49.058;12.190;2023-03-04T03:00:24;96288.72;;;-1.84;100.00
23677;BME280;31493;49.058;12.190;2023-03-04T03:02:52;96285.34;;;-1.85;100.00
23677;BME280;31493;49.058;12.190;2023-03-04T03:05:22;96280.25;;;-1.83;100.00
23677;BME280;31493;49.058;12.190;2023-03-04T03:07:50;96286.94;;;-1.78;100.00
23677;BME280;31493;49.058;12.190;2023-03-04T03:10:17;96292.22;;;-1.92;100.00
23677;BME280;31493;49.058;12.190;2023-03-04T03:12:44;96285.44;;;-1.91;100.00
23677;BME280;31493;49.058;12.190;2023-03-04T03:15:12;96283.75;;;-1.92;100.00
23677;BME280;31493;49.058;12.190;2023-03-04T03:17:39;96292.19;;;-1.88;100.00
23677;BME280;31493;49.058;12.190;2023-03-04T03:20:10;96289.56;;;-1.85;99.94
23677;BME280;31493;49.058;12.190;2023-03-04T03:22:37;96288.91;;;-1.95;100.00
23677;BME280;31493;49.058;12.190;2023-03-04T03:25:06;96292.13;;;-1.85;99.92
23677;BME280;31493;49.058;12.190;2023-03-04T03:27:33;96283.59;;;-1.81;99.11
23677;BME280;31493;49.058;12.190;2023-03-04T03:30:00;96277.81;;;-1.90;99.11
23677;BME280;31493;49.058;12.190;2023-03-04T03:32:28;96275.88;;;-1.75;99.50
23677;BME280;31493;49.058;12.190;2023-03-04T03:34:55;96289.44;;;-1.76;99.31
23677;BME280;31493;49.058;12.190;2023-03-04T03:37:23;96283.72;;;-1.89;98.99
23677;BME280;31493;49.058;12.190;2023-03-04T03:39:50;96282.91;;;-1.90;99.83
23677;BME280;31493;49.058;12.190;2023-03-04T03:42:17;96283.81;;;-1.97;100.00
23677;BME280;31493;49.058;12.190;2023-03-04T03:44:44;96277.28;;;-2.10;100.00
23677;BME280;31493;49.058;12.190;2023-03-04T03:47:11;96293.13;;;-1.97;100.00
23677;BME280;31493;49.058;12.190;2023-03-04T03:49:38;96288.25;;;-2.08;100.00
23677;BME280;31493;49.058;12.190;2023-03-04T03:52:05;96276.34;;;-2.04;100.00
23677;BME280;31493;49.058;12.190;2023-03-04T03:54:35;96275.53;;;-2.06;100.00
23677;BME280;31493;49.058;12.190;2023-03-04T03:57:02;96267.25;;;-2.18;100.00
23677;BME280;31493;49.058;12.190;2023-03-04T03:59:29;96268.22;;;-2.28;100.00
23677;BME280;31493;49.058;12.190;2023-03-04T04:01:56;96275.00;;;-2.27;100.00
23677;BME280;31493;49.058;12.190;2023-03-04T04:04:23;96270.41;;;-2.03;100.00
23677;BME280;31493;49.058;12.190;2023-03-04T04:06:50;96273.13;;;-2.16;100.00
23677;BME280;31493;49.058;12.190;2023-03-04T04:09:17;96280.59;;;-2.06;100.00
23677;BME280;31493;49.058;12.190;2023-03-04T04:11:46;96274.91;;;-2.21;100.00
23677;BME280;31493;49.058;12.190;2023-03-04T04:14:13;96274.72;;;-2.08;100.00
23677;BME280;31493;49.058;12.190;2023-03-04T04:16:40;96268.75;;;-2.06;100.00
23677;BME280;31493;49.058;12.190;2023-03-04T04:19:10;96272.19;;;-2.08;100.00
23677;BME280;31493;49.058;12.190;2023-03-04T04:21:40;96278.09;;;-2.08;100.00
23677;BME280;31493;49.058;12.190;2023-03-04T04:24:07;96276.53;;;-2.17;100.00
23677;BME280;31493;49.058;12.190;2023-03-04T04:26:34;96280.91;;;-2.26;100.00
23677;BME280;31493;49.058;12.190;2023-03-04T04:29:03;96274.97;;;-2.25;100.00
23677;BME280;31493;49.058;12.190;2023-03-04T04:31:30;96273.41;;;-2.35;100.00
23677;BME280;31493;49.058;12.190;2023-03-04T04:33:57;96275.13;;;-2.36;100.00
23677;BME280;31493;49.058;12.190;2023-03-04T04:36:24;96279.47;;;-2.46;100.00
23677;BME280;31493;49.058;12.190;2023-03-04T04:38:51;96276.97;;;-2.47;100.00
23677;BME280;31493;49.058;12.190;2023-03-04T04:41:20;96270.16;;;-2.44;100.00
23677;BME280;31493;49.058;12.190;2023-03-04T04:43:47;96278.56;;;-2.38;100.00
23677;BME280;31493;49.058;12.190;2023-03-04T04:46:16;96273.53;;;-2.43;100.00
23677;BME280;31493;49.058;12.190;2023-03-04T04:48:43;96274.38;;;-2.42;100.00
23677;BME280;31493;49.058;12.190;2023-03-04T04:51:11;96271.78;;;-2.39;100.00
23677;BME280;31493;49.058;12.190;2023-03-04T04:53:38;96279.59;;;-2.55;100.00
23677;BME280;31493;49.058;12.190;2023-03-04T04:56:09;96271.94;;;-2.50;100.00
23677;BME280;31493;49.058;12.190;2023-03-04T04:58:37;96265.97;;;-2.46;100.00
23677;BME280;31493;49.058;12.190;2023-03-04T05:01:04;96275.41;;;-2.56;100.00
23677;BME280;31493;49.058;12.190;2023-03-04T05:03:34;96279.47;;;-2.46;100.00
23677;BME280;31493;49.058;12.190;2023-03-04T05:06:02;96274.13;;;-2.26;100.00
23677;BME280;31493;49.058;12.190;2023-03-04T05:08:29;96285.22;;;-2.34;100.00
23677;BME280;31493;49.058;12.190;2023-03-04T05:10:57;96277.78;;;-2.45;100.00
23677;BME280;31493;49.058;12.190;2023-03-04T05:13:24;96277.00;;;-2.52;100.00
23677;BME280;31493;49.058;12.190;2023-03-04T05:15:52;96269.53;;;-2.61;100.00
23677;BME280;31493;49.058;12.190;2023-03-04T05:18:19;96279.66;;;-2.59;100.00
23677;BME280;31493;49.058;12.190;2023-03-04T05:20:50;96283.78;;;-2.51;100.00
23677;BME280;31493;49.058;12.190;2023-03-04T05:23:18;96277.34;;;-2.75;100.00
23677;BME280;31493;49.058;12.190;2023-03-04T05:25:46;96291.56;;;-2.64;100.00
23677;BME280;31493;49.058;12.190;2023-03-04T05:28:13;96288.19;;;-2.63;100.00
23677;BME280;31493;49.058;12.190;2023-03-04T05:30:43;96299.53;;;-2.97;100.00
23677;BME280;31493;49.058;12.190;2023-03-04T05:33:10;96288.34;;;-2.77;100.00
23677;BME280;31493;49.058;12.190;2023-03-04T05:35:40;96301.06;;;-2.80;100.00
23677;BME280;31493;49.058;12.190;2023-03-04T05:38:10;96301.81;;;-2.74;100.00
23677;BME280;31493;49.058;12.190;2023-03-04T05:40:38;96290.75;;;-2.68;100.00
23677;BME280;31493;49.058;12.190;2023-03-04T05:43:05;96289.97;;;-2.73;100.00
23677;BME280;31493;49.058;12.190;2023-03-04T05:45:32;96295.03;;;-2.70;100.00
23677;BME280;31493;49.058;12.190;2023-03-04T05:47:59;96290.56;;;-2.53;100.00
23677;BME280;31493;49.058;12.190;2023-03-04T05:50:28;96286.41;;;-2.57;100.00
23677;BME280;31493;49.058;12.190;2023-03-04T05:52:55;96301.22;;;-2.94;100.00
23677;BME280;31493;49.058;12.190;2023-03-04T05:55:24;96292.78;;;-2.94;100.00
23677;BME280;31493;49.058;12.190;2023-03-04T05:57:52;96310.50;;;-2.96;100.00
23677;BME280;31493;49.058;12.190;2023-03-04T06:00:19;96298.97;;;-3.18;100.00
23677;BME280;31493;49.058;12.190;2023-03-04T06:02:46;96297.25;;;-3.19;100.00
23677;BME280;31493;49.058;12.190;2023-03-04T06:05:14;96311.69;;;-3.25;100.00
23677;BME280;31493;49.058;12.190;2023-03-04T06:07:42;96308.38;;;-3.33;100.00
23677;BME280;31493;49.058;12.190;2023-03-04T06:10:11;96313.56;;;-3.45;100.00
23677;BME280;31493;49.058;12.190;2023-03-04T06:12:39;96318.50;;;-3.31;100.00
23677;BME280;31493;49.058;12.190;2023-03-04T06:15:07;96312.44;;;-3.16;100.00
23677;BME280;31493;49.058;12.190;2023-03-04T06:17:36;96319.97;;;-3.13;100.00
23677;BME280;31493;49.058;12.190;2023-03-04T06:20:04;96330.09;;;-3.10;100.00
23677;BME280;31493;49.058;12.190;2023-03-04T06:22:32;96331.94;;;-3.28;100.00
23677;BME280;31493;49.058;12.190;2023-03-04T06:24:59;96332.00;;;-3.31;100.00
23677;BME280;31493;49.058;12.190;2023-03-04T06:27:27;96336.22;;;-3.31;100.00
23677;BME280;31493;49.058;12.190;2023-03-04T06:29:55;96334.56;;;-3.38;100.00
23677;BME280;31493;49.058;12.190;2023-03-04T06:32:22;96349.81;;;-3.41;100.00
23677;BME280;31493;49.058;12.190;2023-03-04T06:34:49;96353.19;;;-3.42;100.00
23677;BME280;31493;49.058;12.190;2023-03-04T06:37:16;96348.22;;;-3.53;100.00
23677;BME280;31493;49.058;12.190;2023-03-04T06:39:44;96357.53;;;-3.55;100.00
23677;BME280;31493;49.058;12.190;2023-03-04T06:42:12;96355.81;;;-3.53;100.00
23677;BME280;31493;49.058;12.190;2023-03-04T06:44:39;96359.22;;;-3.56;100.00
23677;BME280;31493;49.058;12.190;2023-03-04T06:47:07;96356.63;;;-3.51;100.00
23677;BME280;31493;49.058;12.190;2023-03-04T06:49:34;96359.22;;;-3.56;100.00
23677;BME280;31493;49.058;12.190;2023-03-04T06:52:02;96368.44;;;-3.52;100.00
23677;BME280;31493;49.058;12.190;2023-03-04T06:54:29;96359.16;;;-3.48;100.00
23677;BME280;31493;49.058;12.190;2023-03-04T06:56:56;96373.53;;;-3.53;100.00
23677;BME280;31493;49.058;12.190;2023-03-04T06:59:23;96361.75;;;-3.54;100.00
23677;BME280;31493;49.058;12.190;2023-03-04T07:01:50;96370.22;;;-3.60;100.00
23677;BME280;31493;49.058;12.190;2023-03-04T07:04:18;96374.47;;;-3.65;100.00
23677;BME280;31493;49.058;12.190;2023-03-04T07:06:47;96369.38;;;-3.63;100.00
23677;BME280;31493;49.058;12.190;2023-03-04T07:09:14;96362.78;;;-3.80;100.00
23677;BME280;31493;49.058;12.190;2023-03-04T07:11:41;96376.38;;;-3.93;100.00
23677;BME280;31493;49.058;12.190;2023-03-04T07:14:09;96386.53;;;-3.99;100.00
23677;BME280;31493;49.058;12.190;2023-03-04T07:16:36;96394.97;;;-4.08;100.00
23677;BME280;31493;49.058;12.190;2023-03-04T07:19:03;96393.31;;;-4.09;100.00
23677;BME280;31493;49.058;12.190;2023-03-04T07:21:32;96394.94;;;-4.01;100.00
23677;BME280;31493;49.058;12.190;2023-03-04T07:23:59;96408.38;;;-3.93;100.00
23677;BME280;31493;49.058;12.190;2023-03-04T07:26:26;96407.50;;;-3.88;100.00
23677;BME280;31493;49.058;12.190;2023-03-04T07:28:53;96409.16;;;-3.82;100.00
23677;BME280;31493;49.058;12.190;2023-03-04T07:31:23;96417.56;;;-3.75;100.00
23677;BME280;31493;49.058;12.190;2023-03-04T07:33:56;96411.66;;;-3.81;100.00
23677;BME280;31493;49.058;12.190;2023-03-04T07:36:23;96416.72;;;-3.81;100.00
23677;BME280;31493;49.058;12.190;2023-03-04T07:38:52;96423.53;;;-3.87;100.00
23677;BME280;31493;49.058;12.190;2023-03-04T07:41:21;96416.81;;;-3.94;100.00
23677;BME280;31493;49.058;12.190;2023-03-04T07:43:49;96420.97;;;-3.81;100.00
23677;BME280;31493;49.058;12.190;2023-03-04T07:46:17;96416.78;;;-3.87;100.00
23677;BME280;31493;49.058;12.190;2023-03-04T07:48:44;96432.84;;;-3.94;100.00
23677;BME280;31493;49.058;12.190;2023-03-04T07:51:13;96421.78;;;-3.78;100.00
23677;BME280;31493;49.058;12.190;2023-03-04T07:53:43;96417.59;;;-3.80;100.00
23677;BME280;31493;49.058;12.190;2023-03-04T07:56:14;96423.44;;;-3.72;100.00
23677;BME280;31493;49.058;12.190;2023-03-04T07:58:41;96429.34;;;-3.74;100.00
23677;BME280;31493;49.058;12.190;2023-03-04T08:01:09;96423.44;;;-3.72;100.00
23677;BME280;31493;49.058;12.190;2023-03-04T08:03:37;96422.56;;;-3.66;100.00
23677;BME280;31493;49.058;12.190;2023-03-04T08:06:05;96441.94;;;-3.65;100.00
23677;BME280;31493;49.058;12.190;2023-03-04T08:08:32;96437.72;;;-3.63;100.00
23677;BME280;31493;49.058;12.190;2023-03-04T08:11:03;96419.19;;;-3.68;100.00
23677;BME280;31493;49.058;12.190;2023-03-04T08:13:31;96434.34;;;-3.61;100.00
23677;BME280;31493;49.058;12.190;2023-03-04T08:15:58;96433.47;;;-3.60;100.00
23677;BME280;31493;49.058;12.190;2023-03-04T08:18:26;96438.44;;;-3.43;100.00
23677;BME280;31493;49.058;12.190;2023-03-04T08:20:53;96425.03;;;-3.56;100.00
23677;BME280;31493;49.058;12.190;2023-03-04T08:23:20;96431.66;;;-3.44;100.00
23677;BME280;31493;49.058;12.190;2023-03-04T08:25:47;96435.00;;;-3.36;100.00
23677;BME280;31493;49.058;12.190;2023-03-04T08:28:15;96440.84;;;-3.29;100.00
23677;BME280;31493;49.058;12.190;2023-03-04T08:30:43;96435.81;;;-3.31;100.00
23677;BME280;31493;49.058;12.190;2023-03-04T08:33:10;96440.81;;;-3.25;100.00
23677;BME280;31493;49.058;12.190;2023-03-04T08:35:38;96429.84;;;-3.23;100.00
23677;BME280;31493;49.058;12.190;2023-03-04T08:38:06;96434.06;;;-3.24;100.00
23677;BME280;31493;49.058;12.190;2023-03-04T08:40:33;96442.47;;;-3.22;100.00
23677;BME280;31493;49.058;12.190;2023-03-04T08:43:00;96440.81;;;-3.23;100.00
23677;BME280;31493;49.058;12.190;2023-03-04T08:45:27;96436.41;;;-3.03;100.00
23677;BME280;31493;49.058;12.190;2023-03-04T08:47:55;96437.25;;;-3.04;100.00
23677;BME280;31493;49.058;12.190;2023-03-04T08:50:22;96431.31;;;-2.98;100.00
23677;BME280;31493;49.058;12.190;2023-03-04T08:52:49;96437.31;;;-3.07;100.00
23677;BME280;31493;49.058;12.190;2023-03-04T08:55:16;96430.44;;;-2.97;100.00
23677;BME280;31493;49.058;12.190;2023-03-04T08:57:43;96428.56;;;-2.75;100.00
23677;BME280;31493;49.058;12.190;2023-03-04T09:00:11;96428.34;;;-2.57;100.00
23677;BME280;31493;49.058;12.190;2023-03-04T09:02:38;96440.00;;;-2.42;100.00
23677;BME280;31493;49.058;12.190;2023-03-04T09:05:08;96436.09;;;-2.69;100.00
23677;BME280;31493;49.058;12.190;2023-03-04T09:07:35;96427.44;;;-2.53;100.00
23677;BME280;31493;49.058;12.190;2023-03-04T09:10:03;96427.38;;;-2.45;100.00
23677;BME280;31493;49.058;12.190;2023-03-04T09:12:30;96441.53;;;-2.27;100.00
23677;BME280;31493;49.058;12.190;2023-03-04T09:14:57;96429.19;;;-2.56;100.00
23677;BME280;31493;49.058;12.190;2023-03-04T09:17:24;96443.38;;;-2.41;100.00
23677;BME280;31493;49.058;12.190;2023-03-04T09:19:51;96438.31;;;-2.41;100.00
23677;BME280;31493;49.058;12.190;2023-03-04T09:22:19;96437.25;;;-2.21;100.00
23677;BME280;31493;49.058;12.190;2023-03-04T09:24:46;96438.06;;;-2.22;100.00
23677;BME280;31493;49.058;12.190;2023-03-04T09:27:13;96439.88;;;-2.30;100.00
23677;BME280;31493;49.058;12.190;2023-03-04T09:29:40;96432.97;;;-2.19;100.00
23677;BME280;31493;49.058;12.190;2023-03-04T09:32:09;96435.06;;;-2.51;100.00
23677;BME280;31493;49.058;12.190;2023-03-04T09:34:36;96438.28;;;-2.38;100.00
23677;BME280;31493;49.058;12.190;2023-03-04T09:37:03;96436.53;;;-2.32;100.00
23677;BME280;31493;49.058;12.190;2023-03-04T09:39:31;96432.84;;;-2.09;100.00
23677;BME280;31493;49.058;12.190;2023-03-04T09:41:59;96435.22;;;-1.97;100.00
23677;BME280;31493;49.058;12.190;2023-03-04T09:44:28;96433.63;;;-2.03;100.00
23677;BME280;31493;49.058;12.190;2023-03-04T09:47:00;96442.47;;;-2.34;100.00
23677;BME280;31493;49.058;12.190;2023-03-04T09:49:29;96448.28;;;-2.28;100.00
23677;BME280;31493;49.058;12.190;2023-03-04T09:52:01;96441.31;;;-2.09;100.00
23677;BME280;31493;49.058;12.190;2023-03-04T09:54:41;96448.75;;;-1.97;100.00
23677;BME280;31493;49.058;12.190;2023-03-04T09:57:22;96456.56;;;-2.12;100.00
23677;BME280;31493;49.058;12.190;2023-03-04T09:59:59;96446.22;;;-1.95;100.00
23677;BME280;31493;49.058;12.190;2023-03-04T10:02:44;96447.78;;;-1.86;100.00
23677;BME280;31493;49.058;12.190;2023-03-04T10:05:16;96440.94;;;-1.80;100.00
23677;BME280;31493;49.058;12.190;2023-03-04T10:07:47;96441.06;;;-1.91;100.00
23677;BME280;31493;49.058;12.190;2023-03-04T10:10:21;96450.63;;;-2.08;100.00
23677;BME280;31493;49.058;12.190;2023-03-04T10:12:52;96453.13;;;-2.06;100.00
23677;BME280;31493;49.058;12.190;2023-03-04T10:15:25;96450.63;;;-2.09;100.00
23677;BME280;31493;49.058;12.190;2023-03-04T10:18:01;96444.63;;;-2.04;100.00
23677;BME280;31493;49.058;12.190;2023-03-04T10:20:32;96448.09;;;-2.08;100.00
23677;BME280;31493;49.058;12.190;2023-03-04T10:23:09;96440.34;;;-1.99;100.00
23677;BME280;31493;49.058;12.190;2023-03-04T10:25:42;96444.53;;;-1.98;100.00
23677;BME280;31493;49.058;12.190;2023-03-04T10:28:14;96447.00;;;-1.92;100.00
23677;BME280;31493;49.058;12.190;2023-03-04T10:30:48;96428.19;;;-1.75;100.00
23677;BME280;31493;49.058;12.190;2023-03-04T10:33:18;96429.69;;;-1.62;100.00
23677;BME280;31493;49.058;12.190;2023-03-04T10:35:49;96427.44;;;-1.82;100.00
23677;BME280;31493;49.058;12.190;2023-03-04T10:38:19;96441.69;;;-1.72;100.00
23677;BME280;31493;49.058;12.190;2023-03-04T10:40:47;96433.13;;;-1.65;100.00
23677;BME280;31493;49.058;12.190;2023-03-04T10:43:16;96443.28;;;-1.66;100.00
23677;BME280;31493;49.058;12.190;2023-03-04T10:45:44;96445.25;;;-1.86;100.00
23677;BME280;31493;49.058;12.190;2023-03-04T10:48:20;96441.06;;;-1.89;100.00
23677;BME280;31493;49.058;12.190;2023-03-04T10:50:47;96445.19;;;-1.82;100.00
23677;BME280;31493;49.058;12.190;2023-03-04T10:53:24;96443.59;;;-1.91;100.00
23677;BME280;31493;49.058;12.190;2023-03-04T10:55:55;96436.03;;;-1.92;100.00
23677;BME280;31493;49.058;12.190;2023-03-04T10:58:22;96435.91;;;-1.84;100.00
23677;BME280;31493;49.058;12.190;2023-03-04T11:00:59;96426.38;;;-1.67;100.00
23677;BME280;31493;49.058;12.190;2023-03-04T11:03:30;96439.19;;;-1.76;100.00
23677;BME280;31493;49.058;12.190;2023-03-04T11:06:14;96425.75;;;-1.83;100.00
23677;BME280;31493;49.058;12.190;2023-03-04T11:08:42;96422.38;;;-1.85;100.00
23677;BME280;31493;49.058;12.190;2023-03-04T11:11:24;96420.59;;;-1.77;100.00
23677;BME280;31493;49.058;12.190;2023-03-04T11:13:57;96419.69;;;-1.74;100.00
23677;BME280;31493;49.058;12.190;2023-03-04T11:16:27;96422.47;;;-1.90;100.00
23677;BME280;31493;49.058;12.190;2023-03-04T11:18:58;96405.22;;;-1.68;100.00
23677;BME280;31493;49.058;12.190;2023-03-04T11:21:29;96411.31;;;-1.78;100.00
23677;BME280;31493;49.058;12.190;2023-03-04T11:23:59;96411.31;;;-1.78;100.00
23677;BME280;31493;49.058;12.190;2023-03-04T11:26:30;96401.06;;;-1.73;100.00
23677;BME280;31493;49.058;12.190;2023-03-04T11:29:03;96404.06;;;-1.48;100.00
23677;BME280;31493;49.058;12.190;2023-03-04T11:31:33;96395.66;;;-1.50;100.00
23677;BME280;31493;49.058;12.190;2023-03-04T11:34:03;96404.28;;;-1.62;100.00
23677;BME280;31493;49.058;12.190;2023-03-04T11:36:50;96399.88;;;-1.49;100.00
23677;BME280;31493;49.058;12.190;2023-03-04T11:39:25;96410.03;;;-1.49;100.00
23677;BME280;31493;49.058;12.190;2023-03-04T11:41:58;96399.00;;;-1.48;100.00
23677;BME280;31493;49.058;12.190;2023-03-04T11:44:28;96406.53;;;-1.41;100.00
23677;BME280;31493;49.058;12.190;2023-03-04T11:47:07;96396.16;;;-1.28;100.00
23677;BME280;31493;49.058;12.190;2023-03-04T11:52:55;96393.56;;;-1.25;100.00
23677;BME280;31493;49.058;12.190;2023-03-04T11:55:34;96393.34;;;-1.13;100.00
23677;BME280;31493;49.058;12.190;2023-03-04T11:58:15;96382.84;;;-1.41;100.00
23677;BME280;31493;49.058;12.190;2023-03-04T12:00:52;96391.19;;;-1.34;100.00
23677;BME280;31493;49.058;12.190;2023-03-04T12:03:41;96379.34;;;-1.37;100.00
23677;BME280;31493;49.058;12.190;2023-03-04T12:06:11;96386.75;;;-1.23;100.00
23677;BME280;31493;49.058;12.190;2023-03-04T12:09:11;96367.16;;;-1.15;100.00
23677;BME280;31493;49.058;12.190;2023-03-04T12:11:46;96368.78;;;-1.13;100.00
23677;BME280;31493;49.058;12.190;2023-03-04T12:14:23;96360.91;;;-0.97;100.00
23677;BME280;31493;49.058;12.190;2023-03-04T12:17:05;96363.50;;;-1.00;100.00
23677;BME280;31493;49.058;12.190;2023-03-04T12:19:44;96352.13;;;-0.81;100.00
23677;BME280;31493;49.058;12.190;2023-03-04T12:22:32;96356.44;;;-0.85;100.00
23677;BME280;31493;49.058;12.190;2023-03-04T12:25:14;96351.34;;;-0.85;100.00
23677;BME280;31493;49.058;12.190;2023-03-04T12:27:48;96355.38;;;-0.74;100.00
23677;BME280;31493;49.058;12.190;2023-03-04T12:30:34;96354.56;;;-0.76;100.00
23677;BME280;31493;49.058;12.190;2023-03-04T12:33:12;96341.41;;;-0.98;100.00
23677;BME280;31493;49.058;12.190;2023-03-04T12:35:45;96340.97;;;-0.74;100.00
23677;BME280;31493;49.058;12.190;2023-03-04T12:38:41;96343.84;;;-0.92;100.00
23677;BME280;31493;49.058;12.190;2023-03-04T12:41:29;96338.91;;;-1.00;100.00
23677;BME280;31493;49.058;12.190;2023-03-04T12:44:10;96340.59;;;-0.99;100.00
23677;BME280;31493;49.058;12.190;2023-03-04T12:46:55;96333.94;;;-1.06;100.00
23677;BME280;31493;49.058;12.190;2023-03-04T12:49:43;96328.41;;;-0.82;100.00
23677;BME280;31493;49.058;12.190;2023-03-04T12:52:15;96325.97;;;-0.88;100.00
23677;BME280;31493;49.058;12.190;2023-03-04T12:54:49;96325.81;;;-0.80;100.00
23677;BME280;31493;49.058;12.190;2023-03-04T12:57:18;96320.56;;;-0.71;100.00
23677;BME280;31493;49.058;12.190;2023-03-04T12:59:53;96331.03;;;-0.86;100.00